createdAt,value
2018-03-02T00:00:02.070Z,-3.21
2018-03-02T00:04:05.632Z,-3.25
2018-03-02T00:08:09.755Z,-3.25
2018-03-02T00:12:13.906Z,-3.22
2018-03-02T00:16:17.288Z,-3.32
2018-03-02T00:20:21.515Z,-3.32
2018-03-02T00:24:25.710Z,-3.30
2018-03-02T00:28:29.095Z,-3.33
2018-03-02T00:32:32.450Z,-3.33
2018-03-02T00:36:36.586Z,-3.22
2018-03-02T00:40:39.986Z,-3.25
2018-03-02T00:44:44.119Z,-3.37
2018-03-02T00:48:47.489Z,-3.33
2018-03-02T00:52:50.874Z,-3.38
2018-03-02T00:56:54.238Z,-3.41
2018-03-02T01:00:57.614Z,-3.46
2018-03-02T01:05:01.764Z,-3.49
2018-03-02T01:09:05.165Z,-3.50
2018-03-02T01:13:08.558Z,-3.48
2018-03-02T01:17:12.704Z,-3.49
2018-03-02T01:21:16.070Z,-3.52
2018-03-02T01:25:20.231Z,-3.55
2018-03-02T01:29:23.632Z,-3.62
2018-03-02T01:33:27.768Z,-3.57
2018-03-02T01:37:31.360Z,-3.64
2018-03-02T01:41:35.493Z,-3.58
2018-03-02T01:45:38.854Z,-3.50
2018-03-02T01:49:42.219Z,-3.54
2018-03-02T01:53:45.576Z,-3.50
2018-03-02T01:57:48.940Z,-3.44
2018-03-02T02:01:52.355Z,-3.46
2018-03-02T02:05:55.728Z,-3.33
2018-03-02T02:09:59.071Z,-3.29
2018-03-02T02:14:02.441Z,-3.26
2018-03-02T02:18:05.877Z,-3.37
2018-03-02T02:22:09.265Z,-3.30
2018-03-02T02:26:12.636Z,-3.45
2018-03-02T02:30:16.764Z,-3.23
2018-03-02T02:34:20.890Z,-3.32
2018-03-02T02:38:25.031Z,-3.28
2018-03-02T02:42:28.431Z,-3.08
2018-03-02T02:46:31.796Z,-3.18
2018-03-02T02:50:35.177Z,-3.11
2018-03-02T02:54:38.577Z,-2.99
2018-03-02T02:58:41.947Z,-3.00
2018-03-02T03:02:45.346Z,-3.05
2018-03-02T03:06:49.590Z,-3.11
2018-03-02T03:10:52.965Z,-3.16
2018-03-02T03:14:57.115Z,-3.09
2018-03-02T03:19:00.480Z,-3.16
2018-03-02T03:23:03.860Z,-3.20
2018-03-02T03:27:07.230Z,-3.20
2018-03-02T03:31:10.605Z,-3.13
2018-03-02T03:35:14.804Z,-3.26
2018-03-02T03:39:18.165Z,-3.25
2018-03-02T03:43:21.537Z,-3.22
2018-03-02T03:47:24.913Z,-3.32
2018-03-02T03:51:28.277Z,-3.36
2018-03-02T03:55:31.673Z,-3.40
2018-03-02T03:59:35.831Z,-3.50
2018-03-02T04:03:39.212Z,-3.57
2018-03-02T04:07:42.575Z,-3.53
2018-03-02T04:11:45.949Z,-3.67
2018-03-02T04:15:49.326Z,-3.60
2018-03-02T04:19:52.700Z,-3.72
2018-03-02T04:23:56.065Z,-3.61
2018-03-02T04:27:59.425Z,-3.67
2018-03-02T04:32:03.554Z,-3.67
2018-03-02T04:36:07.698Z,-3.73
2018-03-02T04:40:11.079Z,-3.63
2018-03-02T04:44:15.266Z,-3.62
2018-03-02T04:48:18.625Z,-3.68
2018-03-02T04:52:22.762Z,-3.59
2018-03-02T04:56:26.269Z,-3.60
2018-03-02T05:00:29.749Z,-3.64
2018-03-02T05:04:33.875Z,-3.63
2018-03-02T05:08:38.009Z,-3.60
2018-03-02T05:12:41.389Z,-3.60
2018-03-02T05:16:44.746Z,-3.56
2018-03-02T05:20:48.162Z,-3.63
2018-03-02T05:24:51.584Z,-3.53
2018-03-02T05:28:54.941Z,-3.53
2018-03-02T05:32:59.076Z,-3.35
2018-03-02T05:37:02.581Z,-3.36
2018-03-02T05:41:06.059Z,-3.44
2018-03-02T05:45:10.251Z,-3.34
2018-03-02T05:49:13.617Z,-3.43
2018-03-02T05:53:16.993Z,-3.32
2018-03-02T05:57:20.379Z,-3.33
2018-03-02T06:01:23.747Z,-3.37
2018-03-02T06:05:27.130Z,-3.32
2018-03-02T06:09:31.273Z,-3.25
2018-03-02T06:13:34.654Z,-3.23
2018-03-02T06:17:38.788Z,-3.19
2018-03-02T06:21:42.159Z,-3.16
2018-03-02T06:25:45.524Z,-3.11
2018-03-02T06:29:48.899Z,-3.17
2018-03-02T06:33:53.037Z,-3.15
2018-03-02T06:37:56.429Z,-3.17
2018-03-02T06:41:59.844Z,-3.18
2018-03-02T06:46:03.231Z,-3.11
2018-03-02T06:50:07.369Z,-3.12
2018-03-02T06:54:10.736Z,-3.09
2018-03-02T06:58:14.877Z,-3.02
2018-03-02T07:02:19.022Z,-2.97
2018-03-02T07:06:22.388Z,-2.93
2018-03-02T07:10:25.760Z,-2.87
2018-03-02T07:14:29.132Z,-2.80
2018-03-02T07:18:33.278Z,-2.81
2018-03-02T07:22:36.622Z,-2.75
2018-03-02T07:26:40.904Z,-2.67
2018-03-02T07:30:44.279Z,-2.58
2018-03-02T07:34:48.411Z,-2.52
2018-03-02T07:38:52.535Z,-2.45
2018-03-02T07:42:56.686Z,-2.56
2018-03-02T07:47:00.054Z,-2.54
2018-03-02T07:51:04.190Z,-2.45
2018-03-02T07:55:08.317Z,-2.35
2018-03-02T07:59:12.504Z,-2.26
2018-03-02T08:03:16.060Z,-2.17
2018-03-02T08:07:19.428Z,-2.26
2018-03-02T08:11:22.810Z,-2.27
2018-03-02T08:15:26.171Z,-2.36
2018-03-02T08:19:29.553Z,-2.25
2018-03-02T08:23:33.702Z,-2.09
2018-03-02T08:27:37.061Z,-2.11
2018-03-02T08:31:40.432Z,-2.02
2018-03-02T08:35:43.950Z,-1.94
2018-03-02T08:39:47.327Z,-1.97
2018-03-02T08:43:50.765Z,-1.92
2018-03-02T08:47:54.131Z,-1.90
2018-03-02T08:51:57.586Z,-1.81
2018-03-02T08:56:00.948Z,-1.59
2018-03-02T09:00:04.386Z,-1.60
2018-03-02T09:04:07.754Z,-1.59
2018-03-02T09:08:11.886Z,-1.55
2018-03-02T09:12:15.370Z,-1.51
2018-03-02T09:16:19.519Z,-1.53
2018-03-02T09:20:23.043Z,-1.52
2018-03-02T09:24:26.440Z,-1.39
2018-03-02T09:28:29.877Z,-1.35
2018-03-02T09:32:33.331Z,-1.14
2018-03-02T09:36:37.472Z,-1.07
2018-03-02T09:40:40.867Z,-1.14
2018-03-02T09:44:45.087Z,-1.09
2018-03-02T09:48:49.256Z,-1.00
2018-03-02T09:52:52.824Z,-1.01
2018-03-02T09:56:56.972Z,-0.94
2018-03-02T10:01:00.395Z,-0.95
2018-03-02T10:05:03.745Z,-0.86
2018-03-02T10:09:07.102Z,-0.81
2018-03-02T10:13:10.474Z,-0.51
2018-03-02T10:17:13.877Z,-0.30
2018-03-02T10:21:17.993Z,-0.16
2018-03-02T10:25:22.125Z,-0.07
2018-03-02T10:29:26.243Z,-0.20
2018-03-02T10:33:30.373Z,-0.37
2018-03-02T10:37:34.527Z,-0.32
2018-03-02T10:41:37.948Z,-0.03
2018-03-02T10:45:41.339Z,0.14
2018-03-02T10:49:44.715Z,0.00
2018-03-02T10:53:48.855Z,-0.47
2018-03-02T10:57:52.346Z,-0.12
2018-03-02T11:01:56.574Z,0.28
2018-03-02T11:06:00.705Z,0.72
2018-03-02T11:10:04.070Z,0.24
2018-03-02T11:14:07.450Z,-0.06
2018-03-02T11:18:10.796Z,-0.31
2018-03-02T11:22:14.354Z,-0.37
2018-03-02T11:26:17.748Z,-0.59
2018-03-02T11:30:21.115Z,-0.60
2018-03-02T11:34:24.485Z,-0.38
2018-03-02T11:38:27.936Z,-0.33
2018-03-02T11:42:31.301Z,-0.62
2018-03-02T11:46:34.674Z,-0.68
2018-03-02T11:50:38.057Z,-1.10
2018-03-02T11:54:42.378Z,-1.17
2018-03-02T11:58:46.620Z,-1.12
2018-03-02T12:02:50.765Z,0.15
2018-03-02T12:06:54.118Z,1.49
2018-03-02T12:10:57.473Z,1.23
2018-03-02T12:15:00.824Z,1.37
2018-03-02T12:19:04.190Z,1.04
2018-03-02T12:23:07.546Z,0.59
2018-03-02T12:27:10.904Z,0.49
2018-03-02T12:31:14.282Z,0.53
2018-03-02T12:35:17.659Z,0.41
2018-03-02T12:39:21.804Z,0.34
2018-03-02T12:43:25.987Z,0.52
2018-03-02T12:47:29.362Z,0.12
2018-03-02T12:51:32.871Z,0.43
2018-03-02T12:55:36.224Z,0.11
2018-03-02T12:59:39.586Z,0.42
2018-03-02T13:03:42.990Z,0.61
2018-03-02T13:07:46.384Z,0.52
2018-03-02T13:11:49.741Z,0.54
2018-03-02T13:15:53.342Z,0.72
2018-03-02T13:19:56.696Z,0.62
2018-03-02T13:24:00.091Z,0.38
2018-03-02T13:28:21.848Z,-0.25
2018-03-02T13:32:25.198Z,-0.66
2018-03-02T13:36:28.597Z,-0.87
2018-03-02T13:40:49.713Z,-0.72
2018-03-02T13:44:53.216Z,-1.07
2018-03-02T13:49:14.556Z,-0.90
2018-03-02T13:53:17.921Z,-1.03
2018-03-02T13:57:39.104Z,-1.14
2018-03-02T14:01:42.510Z,-1.12
2018-03-02T14:05:45.891Z,-1.12
2018-03-02T14:09:49.262Z,-1.41
2018-03-02T14:13:52.731Z,-1.45
2018-03-02T14:17:56.278Z,-1.59
2018-03-02T14:21:59.655Z,-1.35
2018-03-02T14:26:03.789Z,-1.18
2018-03-02T14:30:07.980Z,-1.43
2018-03-02T14:34:12.170Z,-1.31
2018-03-02T14:38:15.530Z,-1.19
2018-03-02T14:42:23.030Z,-0.91
2018-03-02T14:46:27.274Z,-1.16
2018-03-02T14:50:31.429Z,-1.52
2018-03-02T14:54:34.836Z,-1.52
2018-03-02T14:58:38.249Z,-1.03
2018-03-02T15:02:41.887Z,-0.81
2018-03-02T15:06:45.280Z,-0.97
2018-03-02T15:10:48.723Z,-1.31
2018-03-02T15:14:52.893Z,-1.49
2018-03-02T15:18:56.313Z,-1.58
2018-03-02T15:22:59.833Z,-1.49
2018-03-02T15:27:03.265Z,-1.70
2018-03-02T15:31:07.458Z,-1.68
2018-03-02T15:35:10.946Z,-1.81
2018-03-02T15:39:14.501Z,-1.98
2018-03-02T15:43:17.876Z,-1.98
2018-03-02T15:47:22.852Z,-2.01
2018-03-02T15:51:26.372Z,-1.99
2018-03-02T15:55:30.723Z,-1.96
2018-03-02T15:59:34.146Z,-1.79
2018-03-02T16:03:37.563Z,-1.82
2018-03-02T16:07:41.111Z,-1.71
2018-03-02T16:11:45.308Z,-1.85
2018-03-02T16:15:48.802Z,-2.06
2018-03-02T16:19:52.200Z,-2.29
2018-03-02T16:23:55.608Z,-2.46
2018-03-02T16:27:59.024Z,-2.27
2018-03-02T16:32:02.433Z,-2.21
2018-03-02T16:36:05.857Z,-2.15
2018-03-02T16:40:10.126Z,-2.30
2018-03-02T16:44:14.358Z,-2.44
2018-03-02T16:48:21.381Z,-2.35
2018-03-02T16:52:25.492Z,-2.43
2018-03-02T16:56:29.230Z,-2.56
2018-03-02T17:00:33.417Z,-2.59
2018-03-02T17:04:37.996Z,-2.56
2018-03-02T17:08:41.991Z,-2.57
2018-03-02T17:12:46.014Z,-2.44
2018-03-02T17:16:49.467Z,-2.50
2018-03-02T17:20:53.020Z,-2.56
2018-03-02T17:24:56.434Z,-2.54
2018-03-02T17:28:59.828Z,-2.63
2018-03-02T17:33:03.419Z,-2.74
2018-03-02T17:37:07.645Z,-2.92
2018-03-02T17:41:11.797Z,-2.93
2018-03-02T17:45:15.233Z,-2.98
2018-03-02T17:49:18.580Z,-2.98
2018-03-02T17:53:22.015Z,-2.99
2018-03-02T17:57:25.485Z,-3.03
2018-03-02T18:01:29.650Z,-3.01
2018-03-02T18:05:33.025Z,-3.03
2018-03-02T18:09:37.173Z,-3.05
2018-03-02T18:13:40.589Z,-2.92
2018-03-02T18:17:43.980Z,-2.80
2018-03-02T18:21:47.480Z,-2.72
2018-03-02T18:25:50.891Z,-2.76
2018-03-02T18:29:54.253Z,-2.78
2018-03-02T18:33:57.636Z,-2.76
2018-03-02T18:38:01.051Z,-2.64
2018-03-02T18:42:04.443Z,-2.57
2018-03-02T18:46:07.831Z,-2.62
2018-03-02T18:50:11.216Z,-2.58
2018-03-02T18:54:15.395Z,-2.58
2018-03-02T18:58:18.843Z,-2.67
2018-03-02T19:02:22.225Z,-2.60
2018-03-02T19:06:25.626Z,-2.53
2018-03-02T19:10:29.039Z,-2.53
2018-03-02T19:14:32.436Z,-2.55
2018-03-02T19:18:37.334Z,-2.52
2018-03-02T19:22:40.735Z,-2.59
2018-03-02T19:26:44.132Z,-2.66
2018-03-02T19:30:47.539Z,-2.68
2018-03-02T19:34:51.051Z,-2.65
2018-03-02T19:38:54.469Z,-2.59
2018-03-02T19:42:57.870Z,-2.63
2018-03-02T19:47:01.293Z,-2.64
2018-03-02T19:51:04.827Z,-2.71
2018-03-02T19:55:08.230Z,-2.62
2018-03-02T19:59:11.665Z,-2.62
2018-03-02T20:03:15.874Z,-2.61
2018-03-02T20:07:20.070Z,-2.45
2018-03-02T20:11:23.534Z,-2.62
2018-03-02T20:15:27.835Z,-2.49
2018-03-02T20:19:31.348Z,-2.56
2018-03-02T20:23:34.744Z,-2.53
2018-03-02T20:27:38.162Z,-2.59
2018-03-02T20:31:41.682Z,-2.66
2018-03-02T20:35:45.898Z,-2.51
2018-03-02T20:39:50.062Z,-2.47
2018-03-02T20:43:53.510Z,-2.53
2018-03-02T20:47:56.939Z,-2.46
2018-03-02T20:52:01.080Z,-2.34
2018-03-02T20:56:05.230Z,-2.44
2018-03-02T21:00:08.738Z,-2.43
2018-03-02T21:04:12.151Z,-2.60
2018-03-02T21:08:15.548Z,-2.39
2018-03-02T21:12:18.932Z,-2.34
2018-03-02T21:16:23.066Z,-2.41
2018-03-02T21:20:26.485Z,-2.60
2018-03-02T21:24:29.891Z,-2.80
2018-03-02T21:28:33.439Z,-2.81
2018-03-02T21:32:36.917Z,-2.80
2018-03-02T21:36:40.297Z,-2.95
2018-03-02T21:40:43.716Z,-2.92
2018-03-02T21:44:47.116Z,-3.01
2018-03-02T21:48:50.696Z,-2.92
2018-03-02T21:52:54.134Z,-2.88
2018-03-02T21:56:57.558Z,-2.94
2018-03-02T22:01:01.063Z,-2.94
2018-03-02T22:05:04.443Z,-2.78
2018-03-02T22:09:08.627Z,-2.72
2018-03-02T22:13:11.995Z,-2.92
2018-03-02T22:17:16.303Z,-2.83
2018-03-02T22:21:20.481Z,-3.05
2018-03-02T22:25:23.972Z,-3.14
2018-03-02T22:29:27.362Z,-3.17
2018-03-02T22:33:30.933Z,-3.25
2018-03-02T22:37:35.042Z,-3.12
2018-03-02T22:41:38.411Z,-3.22
2018-03-02T22:45:41.802Z,-3.24
2018-03-02T22:49:45.184Z,-3.45
2018-03-02T22:53:49.439Z,-3.34
2018-03-02T22:57:52.828Z,-3.33
2018-03-02T23:04:26.051Z,-3.44
2018-03-02T23:08:29.642Z,-3.36
2018-03-02T23:12:33.778Z,-3.32
2018-03-02T23:16:37.216Z,-3.48
2018-03-02T23:20:40.602Z,-3.34
2018-03-02T23:24:43.985Z,-3.47
2018-03-02T23:28:48.141Z,-3.50
2018-03-02T23:32:51.538Z,-3.51
2018-03-02T23:36:55.002Z,-3.58
2018-03-02T23:40:58.374Z,-3.51
2018-03-02T23:45:01.748Z,-3.55
2018-03-02T23:49:05.134Z,-3.53
2018-03-02T23:53:09.395Z,-3.44
2018-03-02T23:57:12.776Z,-3.37
